Time;durP1;ratioP1;P1;durP2;ratioP2;P2;SDS_P1;SDS_P2;PMS_P1;PMS_P2;Temp;Humidity;BMP_temperature;BMP_pressure;BME280_temperature;BME280_humidity;BME280_pressure;Samples;Min_cycle;Max_cycle;Signal;HPM_P1;HPM_P2
2022/04/11 00:02:23;;;;;;;5.82;3.30;;;;;;;3.39;65.79;100299.16;4461991;32;33806;-61
2022/04/11 00:04:51;;;;;;;6.05;3.30;;;;;;;3.18;66.77;100294.09;4456240;32;33913;-61
2022/04/11 00:07:18;;;;;;;6.65;3.35;;;;;;;3.00;67.55;100300.25;4454370;32;32432;-61
2022/04/11 00:09:46;;;;;;;7.20;3.65;;;;;;;3.09;67.40;100298.44;4444797;32;32899;-60
2022/04/11 00:12:13;;;;;;;6.57;3.45;;;;;;;3.32;66.79;100288.44;4460922;32;33529;-61
2022/04/11 00:14:41;;;;;;;7.97;3.40;;;;;;;3.50;65.79;100288.13;4442813;32;32290;-61
2022/04/11 00:17:09;;;;;;;6.57;3.50;;;;;;;3.34;66.75;100302.25;4456829;32;34997;-60
2022/04/11 00:19:37;;;;;;;6.37;3.35;;;;;;;2.92;68.11;100308.19;4445700;32;33425;-61
2022/04/11 00:22:04;;;;;;;9.48;4.40;;;;;;;2.81;68.98;100310.63;4442182;32;33214;-60
2022/04/11 00:24:32;;;;;;;6.75;3.53;;;;;;;3.09;67.99;100306.13;4459562;32;34549;-61
2022/04/11 00:26:59;;;;;;;7.75;3.80;;;;;;;3.26;67.19;100308.41;4457150;32;32288;-60
2022/04/11 00:29:27;;;;;;;8.23;3.70;;;;;;;3.23;67.14;100305.59;4460057;32;31965;-61
2022/04/11 00:31:54;;;;;;;7.68;3.70;;;;;;;3.15;67.24;100314.31;4459146;32;33469;-60
2022/04/11 00:34:24;;;;;;;8.00;4.03;;;;;;;3.39;66.65;100310.31;4441424;32;34046;-60
2022/04/11 00:36:51;;;;;;;6.50;3.80;;;;;;;3.33;66.51;100320.03;4453507;32;34584;-60
2022/04/11 00:39:19;;;;;;;7.85;3.65;;;;;;;3.48;65.99;100310.16;4458116;32;33999;-61
2022/04/11 00:41:47;;;;;;;7.95;3.37;;;;;;;3.81;65.34;100311.09;4453978;32;34385;-60
2022/04/11 00:44:14;;;;;;;7.40;4.00;;;;;;;3.49;65.90;100307.69;4457774;32;34404;-61
2022/04/11 00:46:42;;;;;;;8.90;3.90;;;;;;;3.33;66.47;100315.81;4457546;32;34432;-61
2022/04/11 00:49:10;;;;;;;7.93;3.67;;;;;;;3.04;67.45;100321.09;4459088;32;32980;-61
2022/04/11 00:51:39;;;;;;;7.50;3.60;;;;;;;3.02;67.70;100326.88;4462036;32;34512;-61
2022/04/11 00:54:07;;;;;;;6.82;3.65;;;;;;;3.10;67.73;100330.97;4454807;32;33366;-61
2022/04/11 00:56:36;;;;;;;6.43;3.75;;;;;;;2.97;68.00;100323.03;4454660;32;34428;-60
2022/04/11 00:59:03;;;;;;;7.68;3.62;;;;;;;3.06;67.92;100328.91;4458566;32;34028;-60
2022/04/11 01:01:31;;;;;;;7.45;3.97;;;;;;;3.29;66.72;100335.94;4454464;32;33947;-60
2022/04/11 01:03:58;;;;;;;7.47;4.37;;;;;;;3.09;67.18;100327.50;4456691;32;33913;-60
2022/04/11 01:06:26;;;;;;;7.22;3.58;;;;;;;2.89;67.97;100335.19;4456624;32;34717;-61
2022/04/11 01:08:54;;;;;;;7.07;3.70;;;;;;;2.94;67.72;100329.69;4454756;32;33369;-61
2022/04/11 01:11:22;;;;;;;8.07;4.22;;;;;;;2.73;68.60;100328.78;4447205;32;34884;-61
2022/04/11 01:13:49;;;;;;;6.32;3.78;;;;;;;2.71;68.88;100329.44;4459054;32;33801;-61
2022/04/11 01:16:26;;;;;;;6.70;3.62;;;;;;;2.68;68.96;100330.03;4454747;32;33954;-61
2022/04/11 01:18:54;;;;;;;7.22;4.07;;;;;;;2.94;68.29;100329.69;4457249;32;33502;-60
2022/04/11 01:21:21;;;;;;;7.30;4.30;;;;;;;2.67;68.87;100332.50;4455733;32;34622;-61
2022/04/11 01:23:49;;;;;;;6.37;3.33;;;;;;;2.74;68.66;100324.56;4465189;32;33649;-60
2022/04/11 01:26:18;;;;;;;7.18;3.83;;;;;;;3.15;66.91;100322.91;4464761;32;34587;-61
2022/04/11 01:28:46;;;;;;;6.75;3.55;;;;;;;3.31;66.56;100322.47;4449818;32;35666;-61
2022/04/11 01:31:15;;;;;;;5.45;3.30;;;;;;;3.04;67.45;100333.91;4450182;32;34099;-60
2022/04/11 01:33:43;;;;;;;6.53;3.78;;;;;;;3.19;66.88;100336.84;4464192;32;34598;-61
2022/04/11 01:36:10;;;;;;;9.40;3.72;;;;;;;2.97;67.73;100333.25;4466168;32;33696;-61
2022/04/11 01:38:38;;;;;;;9.77;3.70;;;;;;;3.12;67.17;100342.22;4464164;32;33258;-60
2022/04/11 01:41:05;;;;;;;8.05;4.00;;;;;;;3.49;65.76;100340.12;4465208;32;32192;-61
2022/04/11 01:43:33;;;;;;;7.43;4.03;;;;;;;3.48;65.81;100346.91;4465684;32;34209;-60
2022/04/11 01:46:00;;;;;;;6.53;4.15;;;;;;;3.30;66.53;100356.56;4450949;32;33746;-60
2022/04/11 01:48:29;;;;;;;6.87;3.60;;;;;;;3.30;66.38;100359.13;4465946;32;33337;-61
2022/04/11 01:50:57;;;;;;;7.85;4.37;;;;;;;3.40;66.52;100362.41;4465010;32;33860;-61
2022/04/11 01:53:25;;;;;;;6.80;4.03;;;;;;;3.25;66.98;100362.06;4465881;32;32533;-60
2022/04/11 01:55:53;;;;;;;7.43;3.80;;;;;;;3.65;65.10;100357.59;4465236;32;34120;-60
2022/04/11 01:58:20;;;;;;;7.40;4.00;;;;;;;4.05;64.35;100345.44;4464962;32;33371;-60
2022/04/11 02:00:48;;;;;;;8.20;4.43;;;;;;;3.83;65.18;100356.53;4465393;32;34686;-60
2022/04/11 02:03:15;;;;;;;6.93;3.90;;;;;;;3.76;65.00;100350.81;4465953;32;33410;-61
2022/04/11 02:05:43;;;;;;;6.95;4.00;;;;;;;4.13;64.29;100358.09;4451408;32;33717;-60
2022/04/11 02:08:11;;;;;;;8.27;4.35;;;;;;;4.43;63.03;100353.56;4460894;32;143438;-60
2022/04/11 02:10:40;;;;;;;8.88;4.90;;;;;;;4.75;61.79;100347.44;4465768;32;33825;-60
2022/04/11 02:13:08;;;;;;;7.43;4.18;;;;;;;4.72;61.41;100349.81;4465629;32;33972;-60
2022/04/11 02:15:37;;;;;;;8.43;4.40;;;;;;;4.92;61.04;100359.94;4465583;32;32604;-60
2022/04/11 02:18:06;;;;;;;6.47;4.10;;;;;;;4.93;60.68;100363.38;4465002;32;33246;-60
2022/04/11 02:20:34;;;;;;;7.07;4.10;;;;;;;4.85;61.04;100360.22;4464722;32;34631;-61
2022/04/11 02:23:01;;;;;;;8.15;3.95;;;;;;;4.28;62.90;100357.50;4458602;32;36396;-61
2022/04/11 02:25:32;;;;;;;6.57;3.90;;;;;;;4.69;61.70;100357.25;4461844;32;33643;-61
2022/04/11 02:28:00;;;;;;;6.80;4.07;;;;;;;4.90;60.92;100365.69;4420040;32;32255;-60
2022/04/11 02:30:32;;;;;;;7.20;4.18;;;;;;;4.99;60.44;100373.22;4444574;32;34783;-61
2022/04/11 02:33:01;;;;;;;6.55;3.72;;;;;;;4.51;62.39;100377.25;4431692;32;33751;-61
2022/04/11 02:35:29;;;;;;;7.80;4.15;;;;;;;5.34;59.89;100373.31;4430697;32;33320;-61
2022/04/11 02:37:57;;;;;;;8.48;3.90;;;;;;;6.06;56.92;100365.72;4443933;32;31459;-61
2022/04/11 02:40:26;;;;;;;8.85;3.75;;;;;;;5.83;57.26;100365.72;4444167;32;33042;-61
2022/04/11 02:42:56;;;;;;;8.07;4.12;;;;;;;5.23;58.80;100372.47;4444165;32;33365;-61
2022/04/11 02:45:24;;;;;;;6.95;4.30;;;;;;;4.00;63.45;100375.84;4432557;32;32487;-60
2022/04/11 02:47:53;;;;;;;10.93;5.28;;;;;;;3.56;65.60;100385.06;4445265;32;33456;-61
2022/04/11 02:50:20;;;;;;;7.18;4.10;;;;;;;3.29;66.98;100385.47;4445655;32;32451;-60
2022/04/11 02:52:50;;;;;;;8.77;4.12;;;;;;;3.11;67.70;100382.28;4445230;32;33700;-61
2022/04/11 02:55:18;;;;;;;7.97;4.25;;;;;;;3.15;68.09;100388.56;4443533;32;33212;-60
2022/04/11 02:57:46;;;;;;;7.10;4.35;;;;;;;3.06;68.38;100390.34;4423753;32;33006;-61
2022/04/11 03:00:14;;;;;;;8.02;4.15;;;;;;;3.11;68.55;100389.03;4464209;32;33713;-60
2022/04/11 03:02:42;;;;;;;8.30;4.47;;;;;;;2.94;68.73;100396.22;4464257;32;34730;-60
2022/04/11 03:05:10;;;;;;;6.62;4.05;;;;;;;2.94;68.73;100396.22;4463345;32;33913;-61
2022/04/11 03:07:38;;;;;;;8.10;4.78;;;;;;;3.44;66.99;100384.94;4465382;32;34170;-61
2022/04/11 03:10:07;;;;;;;7.20;4.20;;;;;;;2.77;69.27;100395.56;4467041;32;33968;-60
2022/04/11 03:12:35;;;;;;;8.77;4.78;;;;;;;3.02;68.93;100398.53;4454199;32;33742;-61
2022/04/11 03:15:05;;;;;;;10.43;4.70;;;;;;;2.71;69.93;100401.06;4454349;32;33975;-60
2022/04/11 03:17:32;;;;;;;7.95;4.35;;;;;;;2.84;69.33;100397.84;4466919;32;33513;-60
2022/04/11 03:20:00;;;;;;;9.93;5.03;;;;;;;3.02;68.77;100403.66;4467796;32;34629;-60
2022/04/11 03:22:27;;;;;;;9.73;4.43;;;;;;;3.09;68.81;100400.81;4467084;32;33698;-61
2022/04/11 03:24:57;;;;;;;8.43;3.70;;;;;;;4.05;65.35;100395.03;4467152;32;34640;-61
2022/04/11 03:27:25;;;;;;;6.25;3.65;;;;;;;4.70;62.80;100390.75;4465370;32;33472;-61
2022/04/11 03:29:53;;;;;;;10.52;4.32;;;;;;;5.31;60.89;100399.66;4451376;32;34768;-60
2022/04/11 03:32:21;;;;;;;9.38;4.12;;;;;;;4.78;61.71;100399.03;4468267;32;34473;-61
2022/04/11 03:34:54;;;;;;;7.50;4.12;;;;;;;5.39;60.55;100405.38;4467916;32;32767;-61
2022/04/11 03:37:22;;;;;;;8.65;4.03;;;;;;;5.82;58.85;100410.22;4467007;32;33551;-61
2022/04/11 03:39:51;;;;;;;8.45;4.35;;;;;;;5.50;59.42;100403.59;4465397;32;34743;-61
2022/04/11 03:42:18;;;;;;;8.52;4.30;;;;;;;5.56;59.34;100410.88;4440236;32;32460;-60
2022/04/11 03:44:46;;;;;;;7.35;3.67;;;;;;;5.48;59.41;100415.44;4465695;32;34551;-60
2022/04/11 03:47:14;;;;;;;8.02;3.80;;;;;;;5.43;59.21;100419.34;4466428;32;34009;-61
2022/04/11 03:49:41;;;;;;;9.63;3.72;;;;;;;5.75;58.68;100424.28;4469487;32;34663;-60
2022/04/11 03:52:10;;;;;;;7.50;3.45;;;;;;;5.82;58.07;100415.38;4469304;32;33630;-61
2022/04/11 03:54:37;;;;;;;7.37;4.00;;;;;;;5.03;59.69;100422.34;4469393;32;33946;-60
2022/04/11 03:57:05;;;;;;;10.13;3.92;;;;;;;5.34;59.25;100423.78;4469527;32;33972;-61
2022/04/11 03:59:33;;;;;;;8.95;4.18;;;;;;;4.98;60.59;100433.03;4468791;32;35350;-60
2022/04/11 04:02:01;;;;;;;8.18;4.00;;;;;;;5.23;59.61;100431.56;4469256;32;34487;-61
2022/04/11 04:04:30;;;;;;;11.18;4.72;;;;;;;4.22;63.10;100433.97;4461408;32;33944;-61
2022/04/11 04:06:57;;;;;;;8.52;4.37;;;;;;;3.45;66.51;100440.53;4469605;32;34103;-61
2022/04/11 04:09:25;;;;;;;9.57;4.60;;;;;;;3.38;67.04;100440.78;4468421;32;33847;-61
2022/04/11 04:11:53;;;;;;;7.40;4.60;;;;;;;4.23;64.01;100433.16;4468309;32;34593;-61
2022/04/11 04:14:21;;;;;;;8.18;4.22;;;;;;;3.80;65.72;100445.09;4469564;32;32602;-61
2022/04/11 04:16:49;;;;;;;10.95;4.15;;;;;;;4.77;62.58;100438.31;4468216;32;34205;-61
2022/04/11 04:19:17;;;;;;;9.30;4.70;;;;;;;4.93;61.29;100432.69;4454402;32;33987;-61
2022/04/11 04:21:45;;;;;;;10.18;4.78;;;;;;;4.37;63.12;100442.00;4468704;32;34397;-60
2022/04/11 04:24:13;;;;;;;8.23;4.60;;;;;;;3.65;66.11;100458.44;4453632;32;33833;-60
2022/04/11 04:26:41;;;;;;;9.05;5.12;;;;;;;4.28;64.54;100460.09;4468698;32;34405;-61
2022/04/11 04:29:09;;;;;;;10.75;4.65;;;;;;;4.30;64.20;100455.97;4467807;32;34813;-60
2022/04/11 04:31:37;;;;;;;7.95;4.47;;;;;;;4.63;63.01;100449.16;4453891;32;33872;-61
2022/04/11 04:34:05;;;;;;;7.95;4.15;;;;;;;5.15;60.81;100458.34;4454827;32;34089;-61
2022/04/11 04:36:33;;;;;;;8.32;3.90;;;;;;;4.98;61.51;100461.28;4469101;32;34089;-60
2022/04/11 04:39:02;;;;;;;11.57;4.18;;;;;;;5.27;60.51;100461.88;4468895;32;33936;-61
2022/04/11 04:41:31;;;;;;;9.02;4.10;;;;;;;4.84;61.71;100450.84;4467765;32;35955;-61
2022/04/11 04:43:58;;;;;;;7.90;4.07;;;;;;;5.00;61.60;100457.16;4467704;32;33897;-60
2022/04/11 04:46:26;;;;;;;8.68;4.15;;;;;;;3.97;65.48;100473.00;4469099;32;33414;-60
2022/04/11 04:48:56;;;;;;;7.03;4.43;;;;;;;4.35;64.19;100475.19;4468213;32;33602;-60
2022/04/11 04:51:23;;;;;;;10.00;4.40;;;;;;;4.53;63.36;100474.09;4469445;32;33619;-61
2022/04/11 04:53:52;;;;;;;9.10;4.10;;;;;;;4.95;62.14;100473.91;4469011;32;34509;-61
2022/04/11 04:56:20;;;;;;;9.20;4.12;;;;;;;4.77;62.44;100469.12;4462341;32;33556;-61
2022/04/11 04:58:48;;;;;;;7.65;4.22;;;;;;;5.29;61.08;100473.16;4464903;32;34590;-60
2022/04/11 05:01:16;;;;;;;7.35;3.80;;;;;;;5.15;61.88;100478.88;4454441;32;33580;-61
2022/04/11 05:03:44;;;;;;;8.95;4.22;;;;;;;5.19;61.41;100469.75;4467870;32;34416;-60
2022/04/11 05:06:13;;;;;;;8.50;3.58;;;;;;;4.65;63.12;100478.41;4465746;32;33539;-61
2022/04/11 05:08:41;;;;;;;8.32;3.22;;;;;;;4.59;63.45;100477.91;4466443;32;33695;-60
2022/04/11 05:11:09;;;;;;;7.03;3.22;;;;;;;5.09;61.79;100473.28;4451934;32;34828;-60
2022/04/11 05:13:36;;;;;;;8.43;3.85;;;;;;;4.89;62.93;100485.47;4450322;32;32208;-61
2022/04/11 05:16:05;;;;;;;7.60;3.80;;;;;;;5.62;60.22;100483.28;4465250;32;33663;-61
2022/04/11 05:18:34;;;;;;;8.32;3.80;;;;;;;5.87;59.56;100478.28;4459204;32;33830;-61
2022/04/11 05:21:02;;;;;;;7.87;3.12;;;;;;;5.16;61.97;100485.81;4464545;32;33847;-61
2022/04/11 05:23:30;;;;;;;6.10;2.83;;;;;;;5.11;61.75;100482.00;4462743;32;33868;-60
2022/04/11 05:25:58;;;;;;;6.60;3.78;;;;;;;5.43;60.76;100488.72;4461751;32;33948;-61
2022/04/11 05:28:26;;;;;;;7.90;2.92;;;;;;;5.37;60.90;100481.44;4468390;32;33413;-61
2022/04/11 05:30:54;;;;;;;6.93;3.00;;;;;;;5.38;61.23;100478.06;4452426;32;33913;-61
2022/04/11 05:33:23;;;;;;;5.50;2.42;;;;;;;4.55;62.98;100487.03;4469411;32;34371;-60
2022/04/11 05:35:51;;;;;;;7.28;2.90;;;;;;;4.58;63.48;100488.94;4449326;32;34162;-61
2022/04/11 05:38:19;;;;;;;6.47;2.55;;;;;;;4.82;61.88;100483.19;4457719;32;34145;-60
2022/04/11 05:40:47;;;;;;;6.65;2.60;;;;;;;5.53;60.17;100486.06;4455468;32;33867;-60
2022/04/11 05:43:19;;;;;;;4.00;2.42;;;;;;;5.76;59.02;100489.47;4468207;32;33992;-60
2022/04/11 05:45:47;;;;;;;6.28;2.87;;;;;;;5.52;59.74;100491.97;4466545;32;33474;-60
2022/04/11 05:48:15;;;;;;;6.10;2.72;;;;;;;5.70;59.24;100487.34;4462764;32;34567;-61
2022/04/11 05:50:43;;;;;;;7.22;3.10;;;;;;;5.84;59.02;100486.69;4469173;32;33922;-61
2022/04/11 05:53:11;;;;;;;6.87;3.30;;;;;;;6.45;57.28;100490.31;4442570;32;33190;-62
2022/04/11 05:55:39;;;;;;;6.70;3.17;;;;;;;4.61;62.50;100502.03;4449948;32;33359;-60
2022/04/11 05:58:07;;;;;;;5.00;2.40;;;;;;;4.66;62.58;100493.03;4464430;32;34724;-60
2022/04/11 06:00:35;;;;;;;5.95;2.60;;;;;;;5.61;60.46;100496.91;4440637;32;33534;-61
2022/04/11 06:03:03;;;;;;;6.78;2.87;;;;;;;6.07;58.74;100496.12;4468471;32;34098;-59
2022/04/11 06:05:31;;;;;;;6.35;3.00;;;;;;;6.10;57.48;100495.44;4447106;32;33694;-60
2022/04/11 06:07:58;;;;;;;6.97;3.10;;;;;;;5.58;58.88;100489.88;4467598;32;34520;-60
2022/04/11 06:10:26;;;;;;;8.82;2.67;;;;;;;6.17;58.91;100484.84;4464014;32;34637;-62
2022/04/11 06:12:54;;;;;;;5.45;2.80;;;;;;;5.63;59.62;100488.53;4464183;32;34569;-60
2022/04/11 06:15:22;;;;;;;6.35;3.10;;;;;;;6.22;58.86;100485.16;4459799;32;33554;-61
2022/04/11 06:17:54;;;;;;;5.35;2.62;;;;;;;6.86;56.99;100482.06;4461596;32;33857;-61
2022/04/11 06:20:22;;;;;;;6.47;3.30;;;;;;;5.73;59.27;100482.41;4467339;32;33901;-62
2022/04/11 06:22:49;;;;;;;7.37;3.40;;;;;;;6.36;58.76;100473.31;4468378;32;33958;-60
2022/04/11 06:25:18;;;;;;;6.45;3.15;;;;;;;6.69;57.59;100465.44;4461543;32;34132;-62
2022/04/11 06:27:45;;;;;;;6.60;3.20;;;;;;;7.23;55.91;100476.91;4454648;32;33845;-61
2022/04/11 06:30:13;;;;;;;7.20;3.17;;;;;;;6.74;57.78;100472.56;4467670;32;34024;-61
2022/04/11 06:32:41;;;;;;;6.30;3.17;;;;;;;6.09;58.17;100474.00;4469881;32;33773;-61
2022/04/11 06:35:10;;;;;;;5.60;3.15;;;;;;;6.54;58.50;100478.88;4464355;32;33245;-60
2022/04/11 06:37:37;;;;;;;6.28;2.97;;;;;;;7.16;56.28;100478.94;4451256;32;33341;-62
2022/04/11 06:40:06;;;;;;;5.90;3.03;;;;;;;7.21;55.45;100483.63;4467113;32;34484;-61
2022/04/11 06:42:34;;;;;;;5.45;2.65;;;;;;;7.38;55.06;100481.28;4441635;32;34531;-62
2022/04/11 06:45:04;;;;;;;6.53;2.85;;;;;;;6.31;57.04;100478.13;4443188;32;33535;-61
2022/04/11 06:47:32;;;;;;;7.10;2.78;;;;;;;6.43;58.00;100471.31;4459273;32;33709;-62
2022/04/11 06:50:01;;;;;;;6.37;2.83;;;;;;;6.78;56.84;100475.50;4466093;32;34721;-60
2022/04/11 06:52:28;;;;;;;5.10;2.60;;;;;;;7.09;55.81;100478.53;4447147;32;34393;-61
2022/04/11 06:54:56;;;;;;;8.13;2.58;;;;;;;6.71;56.38;100488.72;4452320;32;34111;-60
2022/04/11 06:57:25;;;;;;;5.87;2.60;;;;;;;6.70;57.31;100489.47;4458453;32;33849;-60
2022/04/11 06:59:52;;;;;;;7.93;2.87;;;;;;;6.89;55.43;100490.03;4443011;32;32406;-62
2022/04/11 07:02:21;;;;;;;5.00;2.90;;;;;;;6.92;56.94;100493.59;4451665;32;34481;-60
2022/04/11 07:04:48;;;;;;;5.53;2.87;;;;;;;6.93;56.91;100495.38;4453437;32;33125;-60
2022/04/11 07:07:16;;;;;;;6.37;2.95;;;;;;;6.81;56.84;100491.13;4455928;32;34712;-62
2022/04/11 07:09:44;;;;;;;8.88;3.17;;;;;;;7.24;56.89;100499.31;4454044;32;33789;-61
2022/04/11 07:12:11;;;;;;;5.78;2.90;;;;;;;7.37;56.34;100495.88;4454454;32;34045;-62
2022/04/11 07:14:38;;;;;;;6.70;3.00;;;;;;;7.13;57.19;100495.09;4457956;32;32985;-59
2022/04/11 07:17:06;;;;;;;7.03;3.30;;;;;;;7.51;55.65;100504.53;4462966;32;34428;-60
2022/04/11 07:19:34;;;;;;;6.37;3.53;;;;;;;7.74;54.99;100500.06;4456411;32;34079;-62
2022/04/11 07:22:01;;;;;;;8.90;3.28;;;;;;;7.35;57.35;100501.72;4457279;32;34058;-60
2022/04/11 07:24:29;;;;;;;7.40;3.03;;;;;;;7.55;56.93;100498.84;4459000;32;33888;-62
2022/04/11 07:26:56;;;;;;;6.75;2.72;;;;;;;7.75;56.33;100494.13;4461346;32;33412;-62
2022/04/11 07:29:24;;;;;;;5.68;3.20;;;;;;;7.58;55.81;100500.72;4457579;32;33968;-61
2022/04/11 07:31:51;;;;;;;6.80;3.40;;;;;;;7.66;55.43;100499.53;4452614;32;35012;-62
2022/04/11 07:34:19;;;;;;;6.00;2.40;;;;;;;7.85;55.65;100499.97;4468119;32;33574;-62
2022/04/11 07:36:46;;;;;;;4.97;2.60;;;;;;;8.01;54.24;100486.41;4461550;32;34539;-62
2022/04/11 07:39:15;;;;;;;5.50;2.80;;;;;;;7.86;54.42;100499.22;4469476;32;34068;-61
2022/04/11 07:41:42;;;;;;;11.98;3.10;;;;;;;7.74;54.45;100495.78;4441031;32;34090;-61
2022/04/11 07:44:09;;;;;;;7.37;2.67;;;;;;;7.74;54.29;100498.37;4466266;32;34112;-60
2022/04/11 07:46:37;;;;;;;6.35;2.95;;;;;;;7.90;54.11;100500.31;4462125;32;33954;-62
2022/04/11 07:49:05;;;;;;;5.82;2.72;;;;;;;8.04;54.65;100504.69;4458012;32;34047;-62
2022/04/11 07:51:32;;;;;;;7.10;2.87;;;;;;;8.22;53.68;100493.78;4465817;32;33621;-61
2022/04/11 07:54:00;;;;;;;9.90;3.08;;;;;;;8.41;53.35;100477.78;4454488;32;33165;-62
2022/04/11 07:56:29;;;;;;;7.85;2.92;;;;;;;8.23;53.62;100490.41;4452341;32;33928;-60
2022/04/11 07:58:57;;;;;;;5.68;2.85;;;;;;;8.73;52.91;100477.31;4455306;32;34698;-62
2022/04/11 08:01:24;;;;;;;7.50;2.92;;;;;;;8.39;52.65;100472.53;4469029;32;33645;-61
2022/04/11 08:03:52;;;;;;;8.40;2.42;;;;;;;9.08;51.25;100478.59;4461914;32;33364;-63
2022/04/11 08:06:20;;;;;;;4.53;1.90;;;;;;;9.16;49.93;100485.13;4465412;32;33850;-62
2022/04/11 08:08:47;;;;;;;7.55;2.50;;;;;;;9.81;48.97;100483.78;4463218;32;34001;-62
2022/04/11 08:11:17;;;;;;;9.40;3.03;;;;;;;10.28;48.03;100485.66;4461770;32;34425;-64
2022/04/11 08:13:48;;;;;;;4.97;2.35;;;;;;;10.85;46.80;100483.66;4467538;32;33158;-61
2022/04/11 08:16:15;;;;;;;5.10;2.53;;;;;;;11.41;44.23;100488.41;4464985;32;33903;-62
2022/04/11 08:18:43;;;;;;;7.30;2.87;;;;;;;11.63;44.17;100488.59;4468697;32;34588;-62
2022/04/11 08:21:10;;;;;;;8.13;2.35;;;;;;;11.66;43.43;100475.78;4469357;32;34474;-62
2022/04/11 08:23:38;;;;;;;5.85;2.80;;;;;;;12.13;40.19;100470.44;4469624;32;34354;-61
2022/04/11 08:26:05;;;;;;;4.30;2.33;;;;;;;12.35;40.71;100477.56;4467605;32;34495;-62
2022/04/11 08:28:33;;;;;;;4.90;2.28;;;;;;;12.20;41.26;100471.63;4460342;32;33626;-62
2022/04/11 08:31:01;;;;;;;4.93;2.05;;;;;;;11.79;42.01;100488.59;4468198;32;33983;-62
2022/04/11 08:33:28;;;;;;;7.10;2.62;;;;;;;11.98;40.84;100485.25;4470089;32;33536;-60
2022/04/11 08:35:56;;;;;;;4.80;2.20;;;;;;;12.25;42.26;100483.12;4459293;32;34528;-62
2022/04/11 08:38:24;;;;;;;5.90;2.40;;;;;;;11.89;40.46;100487.34;4447223;32;33985;-61
2022/04/11 08:40:54;;;;;;;5.20;3.00;;;;;;;11.83;41.37;100490.53;4469108;32;34086;-61
2022/04/11 08:43:23;;;;;;;5.70;3.30;;;;;;;11.08;43.86;100484.91;4469498;32;34000;-61
2022/04/11 08:45:55;;;;;;;5.87;3.10;;;;;;;11.69;44.77;100494.13;4454647;32;34418;-61
2022/04/11 08:48:23;;;;;;;6.62;3.10;;;;;;;11.72;43.13;100478.69;4455334;32;33767;-61
2022/04/11 08:50:50;;;;;;;5.47;2.90;;;;;;;11.54;43.69;100479.53;4467752;32;34724;-61
2022/04/11 08:53:22;;;;;;;6.43;2.80;;;;;;;11.09;44.49;100476.31;4452590;32;34135;-61
2022/04/11 08:55:50;;;;;;;5.00;2.90;;;;;;;11.68;43.49;100469.88;4469254;32;33836;-61
2022/04/11 08:58:18;;;;;;;6.80;3.35;;;;;;;10.96;43.75;100473.88;4469881;32;34964;-61
2022/04/11 09:00:46;;;;;;;4.53;2.53;;;;;;;10.20;48.13;100471.41;4449912;32;33589;-61
2022/04/11 09:03:13;;;;;;;5.55;3.30;;;;;;;10.49;45.06;100465.28;4467441;32;33169;-61
2022/04/11 09:05:41;;;;;;;7.60;3.55;;;;;;;10.55;46.97;100475.09;4469013;32;34814;-61
2022/04/11 09:08:08;;;;;;;5.05;2.70;;;;;;;10.22;48.18;100474.97;4463829;32;33879;-62
2022/04/11 09:10:37;;;;;;;6.53;3.30;;;;;;;10.64;47.66;100465.22;4461547;32;34631;-62
2022/04/11 09:13:07;;;;;;;4.70;2.55;;;;;;;11.02;44.34;100469.03;4463030;32;33287;-62
2022/04/11 09:15:40;;;;;;;8.20;3.60;;;;;;;11.12;44.80;100460.91;4462742;32;33931;-60
2022/04/11 09:18:08;;;;;;;4.32;2.58;;;;;;;10.53;45.74;100463.78;4465950;32;33512;-61
2022/04/11 09:20:40;;;;;;;5.03;3.00;;;;;;;11.11;43.89;100460.84;4469248;32;33941;-61
2022/04/11 09:23:21;;;;;;;4.85;2.67;;;;;;;11.40;43.63;100459.78;4453748;32;33747;-62
2022/04/11 09:25:49;;;;;;;7.95;3.10;;;;;;;11.26;43.17;100463.34;4465638;32;33893;-61
2022/04/11 09:28:16;;;;;;;4.60;2.37;;;;;;;11.12;44.53;100460.91;4454226;32;33863;-63
2022/04/11 09:30:46;;;;;;;6.03;2.90;;;;;;;11.28;43.17;100456.53;4457063;32;33722;-62
2022/04/11 09:33:15;;;;;;;4.72;2.75;;;;;;;9.78;46.42;100470.69;4466096;32;34342;-62
2022/04/11 09:35:49;;;;;;;6.18;2.92;;;;;;;9.76;46.66;100468.00;4467805;32;33985;-62
2022/04/11 09:38:19;;;;;;;4.60;2.50;;;;;;;10.86;46.89;100458.66;4453112;32;32947;-63
2022/04/11 09:40:49;;;;;;;5.50;3.10;;;;;;;11.19;43.86;100454.37;4455707;32;33569;-61
2022/04/11 09:43:18;;;;;;;6.20;2.90;;;;;;;10.47;45.89;100456.56;4467079;32;33478;-61
2022/04/11 09:45:47;;;;;;;5.37;3.12;;;;;;;11.05;42.86;100456.25;4463884;32;33794;-62
2022/04/11 09:48:17;;;;;;;6.20;2.53;;;;;;;11.38;42.47;100458.81;4469140;32;33810;-62
2022/04/11 09:50:47;;;;;;;6.32;3.33;;;;;;;10.94;43.19;100444.41;4468090;32;34337;-62
2022/04/11 09:53:17;;;;;;;7.07;3.53;;;;;;;10.73;45.03;100454.50;4469273;32;34123;-60
2022/04/11 09:55:47;;;;;;;9.27;3.47;;;;;;;11.11;43.60;100461.75;4464845;32;32988;-60
2022/04/11 09:58:17;;;;;;;4.97;2.70;;;;;;;11.35;43.96;100458.66;4453762;32;34390;-63
2022/04/11 10:00:45;;;;;;;5.37;2.37;;;;;;;11.61;41.93;100458.28;4466267;32;35530;-61
2022/04/11 10:03:13;;;;;;;6.57;2.87;;;;;;;11.49;41.32;100462.88;4451797;32;32042;-62
2022/04/11 10:05:41;;;;;;;4.43;2.45;;;;;;;11.56;42.20;100458.88;4426615;32;34653;-62
2022/04/11 10:08:10;;;;;;;5.65;2.85;;;;;;;11.51;40.64;100449.94;4459251;32;33658;-63
2022/04/11 10:10:39;;;;;;;4.35;2.15;;;;;;;11.20;40.71;100449.28;4453404;32;34767;-62
2022/04/11 10:13:09;;;;;;;5.28;2.45;;;;;;;11.07;41.25;100457.22;4459114;32;33417;-61
2022/04/11 10:15:38;;;;;;;4.55;1.98;;;;;;;10.96;42.50;100455.75;4462822;32;32958;-62
2022/04/11 10:18:08;;;;;;;4.43;1.87;;;;;;;11.14;40.93;100459.28;4455950;32;33994;-62
2022/04/11 10:20:40;;;;;;;4.78;2.37;;;;;;;11.00;37.79;100458.56;4466336;32;34439;-62
2022/04/11 10:24:06;;;;;;;4.82;2.50;;;;;;;11.18;40.08;100463.84;4450306;32;33015;-62
2022/04/11 10:26:46;;;;;;;5.03;2.40;;;;;;;10.73;38.76;100460.56;4390083;32;34074;-61
2022/04/11 10:29:36;;;;;;;4.90;2.33;;;;;;;11.61;40.17;100457.41;4450003;32;33857;-62
2022/04/11 10:32:09;;;;;;;4.97;2.30;;;;;;;11.37;40.09;100459.62;4461620;32;34571;-61
2022/04/11 10:34:48;;;;;;;3.37;1.73;;;;;;;11.78;40.81;100445.25;4465997;32;33032;-60
2022/04/11 10:37:17;;;;;;;4.20;1.62;;;;;;;11.65;36.60;100448.97;4466666;32;33596;-59
2022/04/11 10:39:46;;;;;;;4.70;2.42;;;;;;;11.50;36.92;100453.38;4468268;32;34642;-60
2022/04/11 10:42:19;;;;;;;3.62;2.12;;;;;;;11.35;37.23;100453.47;4467421;32;34312;-60
2022/04/11 10:44:58;;;;;;;4.70;2.37;;;;;;;12.10;35.89;100443.41;4451029;32;33220;-60
2022/04/11 10:47:29;;;;;;;4.50;1.98;;;;;;;11.64;37.34;100472.22;4452965;32;32248;-61
2022/04/11 10:49:57;;;;;;;3.08;1.50;;;;;;;11.05;37.17;100463.09;4467241;32;34589;-60
2022/04/11 10:52:28;;;;;;;3.00;1.50;;;;;;;10.96;35.93;100450.56;4464009;32;33348;-60
2022/04/11 10:55:10;;;;;;;3.75;2.15;;;;;;;11.26;35.74;100456.47;4458909;32;31675;-61
2022/04/11 10:57:38;;;;;;;4.12;2.10;;;;;;;11.00;37.43;100450.78;4464233;32;34040;-62
2022/04/11 11:00:07;;;;;;;4.90;2.50;;;;;;;11.42;36.60;100445.19;4465296;32;33982;-61
2022/04/11 11:02:57;;;;;;;3.97;1.80;;;;;;;11.61;38.99;100447.91;4464980;32;34200;-63
2022/04/11 11:05:25;;;;;;;5.40;2.20;;;;;;;11.96;35.36;100446.22;4464695;32;33408;-63
2022/04/11 11:08:11;;;;;;;3.55;1.95;;;;;;;11.50;35.86;100450.78;4466794;32;33439;-62
2022/04/11 11:10:47;;;;;;;3.35;1.70;;;;;;;11.38;34.81;100453.63;4458955;32;33903;-61
2022/04/11 11:13:27;;;;;;;;;;;;;;;11.81;34.93;100442.84;4453958;32;34584;-60
2022/04/11 11:16:08;;;;;;;5.60;2.60;;;;;;;12.14;35.38;100440.16;4464509;32;33340;-59
2022/04/11 11:18:51;;;;;;;4.10;2.08;;;;;;;12.10;36.24;100427.84;4463488;32;33774;-60
2022/04/11 11:21:28;;;;;;;4.25;2.10;;;;;;;11.55;35.63;100437.22;4463955;32;34449;-60
2022/04/11 11:24:04;;;;;;;4.32;2.58;;;;;;;10.99;36.25;100442.91;4464823;32;33779;-61
2022/04/11 11:26:40;;;;;;;4.85;2.60;;;;;;;11.23;36.30;100442.47;4465043;32;33447;-60
2022/04/11 11:29:26;;;;;;;6.15;2.95;;;;;;;11.05;37.49;100442.34;4459231;32;34061;-61
2022/04/11 11:31:57;;;;;;;7.10;2.75;;;;;;;11.79;35.94;100431.50;4453924;32;33454;-62
2022/04/11 11:34:26;;;;;;;7.25;3.22;;;;;;;11.84;35.27;100435.22;4453101;32;32927;-61
2022/04/11 11:37:03;;;;;;;7.65;3.03;;;;;;;11.64;35.10;100420.34;4469085;32;33408;-60
2022/04/11 11:39:35;;;;;;;4.05;2.30;;;;;;;11.80;34.22;100425.47;4466133;32;34617;-60
2022/04/11 11:42:09;;;;;;;4.72;2.33;;;;;;;12.02;33.63;100427.47;4454627;32;33072;-61